sensor_id;sensor_type;location;lat;lon;timestamp;pressure;altitude;pressure_sealevel;temperature;humidity
58239;BME280;44037;55.638;37.356;2023-03-26T00:01:01;97742.81;;;7.98;100.00
58239;BME280;44037;55.638;37.356;2023-03-26T00:03:30;97743.75;;;7.94;100.00
58239;BME280;44037;55.638;37.356;2023-03-26T00:06:02;97740.31;;;7.90;100.00
58239;BME280;44037;55.638;37.356;2023-03-26T00:08:32;97739.50;;;7.87;100.00
58239;BME280;44037;55.638;37.356;2023-03-26T00:10:59;97742.97;;;7.82;100.00
58239;BME280;44037;55.638;37.356;2023-03-26T00:13:27;97748.19;;;7.79;100.00
58239;BME280;44037;55.638;37.356;2023-03-26T00:15:54;97748.22;;;7.76;100.00
58239;BME280;44037;55.638;37.356;2023-03-26T00:18:22;97760.25;;;7.74;100.00
58239;BME280;44037;55.638;37.356;2023-03-26T00:20:54;97759.44;;;7.71;100.00
58239;BME280;44037;55.638;37.356;2023-03-26T00:23:22;97762.00;;;7.69;100.00
58239;BME280;44037;55.638;37.356;2023-03-26T00:25:51;97757.75;;;7.68;100.00
58239;BME280;44037;55.638;37.356;2023-03-26T00:28:19;97742.28;;;7.66;100.00
58239;BME280;44037;55.638;37.356;2023-03-26T00:30:46;97751.72;;;7.67;100.00
58239;BME280;44037;55.638;37.356;2023-03-26T00:33:14;97754.28;;;7.69;100.00
58239;BME280;44037;55.638;37.356;2023-03-26T00:35:50;97741.38;;;7.69;100.00
58239;BME280;44037;55.638;37.356;2023-03-26T00:38:18;97737.13;;;7.68;100.00
58239;BME280;44037;55.638;37.356;2023-03-26T00:40:46;97734.53;;;7.68;100.00
58239;BME280;44037;55.638;37.356;2023-03-26T00:43:17;97735.41;;;7.67;100.00
58239;BME280;44037;55.638;37.356;2023-03-26T00:45:45;97725.97;;;7.66;100.00
58239;BME280;44037;55.638;37.356;2023-03-26T00:48:13;97717.38;;;7.67;100.00
58239;BME280;44037;55.638;37.356;2023-03-26T00:50:41;97719.91;;;7.68;100.00
58239;BME280;44037;55.638;37.356;2023-03-26T00:53:09;97721.63;;;7.69;100.00
58239;BME280;44037;55.638;37.356;2023-03-26T00:55:38;97718.19;;;7.71;100.00
58239;BME280;44037;55.638;37.356;2023-03-26T00:58:06;97725.91;;;7.72;100.00
58239;BME280;44037;55.638;37.356;2023-03-26T01:00:41;97713.00;;;7.72;100.00
58239;BME280;44037;55.638;37.356;2023-03-26T01:03:11;97708.69;;;7.74;100.00
58239;BME280;44037;55.638;37.356;2023-03-26T01:05:46;97706.09;;;7.77;100.00
58239;BME280;44037;55.638;37.356;2023-03-26T01:08:25;97704.34;;;7.79;100.00
58239;BME280;44037;55.638;37.356;2023-03-26T01:10:55;97711.25;;;7.77;100.00
58239;BME280;44037;55.638;37.356;2023-03-26T01:13:29;97706.97;;;7.73;100.00
58239;BME280;44037;55.638;37.356;2023-03-26T01:15:59;97702.72;;;7.71;100.00
58239;BME280;44037;55.638;37.356;2023-03-26T01:18:30;97709.59;;;7.70;100.00
58239;BME280;44037;55.638;37.356;2023-03-26T01:21:00;97713.09;;;7.66;100.00
58239;BME280;44037;55.638;37.356;2023-03-26T01:23:37;97710.50;;;7.64;100.00
58239;BME280;44037;55.638;37.356;2023-03-26T01:26:14;97715.69;;;7.63;100.00
58239;BME280;44037;55.638;37.356;2023-03-26T01:28:45;97715.72;;;7.61;100.00
58239;BME280;44037;55.638;37.356;2023-03-26T01:31:17;97714.00;;;7.59;100.00
58239;BME280;44037;55.638;37.356;2023-03-26T01:33:49;97717.44;;;7.58;100.00
58239;BME280;44037;55.638;37.356;2023-03-26T01:36:22;97712.28;;;7.58;100.00
58239;BME280;44037;55.638;37.356;2023-03-26T01:38:58;97710.59;;;7.55;100.00
58239;BME280;44037;55.638;37.356;2023-03-26T01:41:33;97705.47;;;7.53;100.00
58239;BME280;44037;55.638;37.356;2023-03-26T01:44:09;97696.91;;;7.51;100.00
58239;BME280;44037;55.638;37.356;2023-03-26T01:46:41;97697.72;;;7.52;100.00
58239;BME280;44037;55.638;37.356;2023-03-26T01:49:09;97701.19;;;7.51;100.00
58239;BME280;44037;55.638;37.356;2023-03-26T01:51:39;97701.19;;;7.49;100.00
58239;BME280;44037;55.638;37.356;2023-03-26T01:54:09;97692.66;;;7.46;100.00
58239;BME280;44037;55.638;37.356;2023-03-26T01:56:47;97698.69;;;7.43;100.00
58239;BME280;44037;55.638;37.356;2023-03-26T01:59:27;97687.50;;;7.44;100.00
58239;BME280;44037;55.638;37.356;2023-03-26T02:02:05;97681.53;;;7.42;100.00
58239;BME280;44037;55.638;37.356;2023-03-26T02:04:40;97675.50;;;7.42;100.00
58239;BME280;44037;55.638;37.356;2023-03-26T02:07:14;97674.66;;;7.41;100.00
58239;BME280;44037;55.638;37.356;2023-03-26T02:09:47;97676.38;;;7.42;100.00
58239;BME280;44037;55.638;37.356;2023-03-26T02:12:20;97672.97;;;7.40;100.00
58239;BME280;44037;55.638;37.356;2023-03-26T02:14:48;97667.81;;;7.37;100.00
58239;BME280;44037;55.638;37.356;2023-03-26T02:17:35;97667.88;;;7.32;100.00
58239;BME280;44037;55.638;37.356;2023-03-26T02:20:06;97668.75;;;7.28;100.00
58239;BME280;44037;55.638;37.356;2023-03-26T02:22:34;97679.94;;;7.26;100.00
58239;BME280;44037;55.638;37.356;2023-03-26T02:25:07;97679.13;;;7.22;100.00
58239;BME280;44037;55.638;37.356;2023-03-26T02:27:36;97685.16;;;7.21;100.00
58239;BME280;44037;55.638;37.356;2023-03-26T02:30:06;97678.28;;;7.18;100.00
58239;BME280;44037;55.638;37.356;2023-03-26T02:32:34;97674.00;;;7.19;100.00
58239;BME280;44037;55.638;37.356;2023-03-26T02:35:01;97679.19;;;7.17;100.00
58239;BME280;44037;55.638;37.356;2023-03-26T02:37:30;97680.88;;;7.17;100.00
58239;BME280;44037;55.638;37.356;2023-03-26T02:39:58;97664.56;;;7.15;100.00
58239;BME280;44037;55.638;37.356;2023-03-26T02:42:25;97667.16;;;7.16;100.00
58239;BME280;44037;55.638;37.356;2023-03-26T02:44:54;97662.88;;;7.15;100.00
58239;BME280;44037;55.638;37.356;2023-03-26T02:47:21;97667.16;;;7.16;100.00
58239;BME280;44037;55.638;37.356;2023-03-26T02:49:48;97665.44;;;7.14;100.00
58239;BME280;44037;55.638;37.356;2023-03-26T02:52:15;97666.31;;;7.13;100.00
58239;BME280;44037;55.638;37.356;2023-03-26T02:54:43;97659.47;;;7.13;100.00
58239;BME280;44037;55.638;37.356;2023-03-26T02:57:10;97663.75;;;7.14;100.00
58239;BME280;44037;55.638;37.356;2023-03-26T02:59:37;97659.47;;;7.13;100.00
58239;BME280;44037;55.638;37.356;2023-03-26T03:02:06;97652.56;;;7.15;100.00
58239;BME280;44037;55.638;37.356;2023-03-26T03:04:33;97648.25;;;7.16;100.00
58239;BME280;44037;55.638;37.356;2023-03-26T03:07:00;97643.97;;;7.16;100.00
58239;BME280;44037;55.638;37.356;2023-03-26T03:09:27;97648.25;;;7.16;100.00
58239;BME280;44037;55.638;37.356;2023-03-26T03:11:55;97643.13;;;7.16;100.00
58239;BME280;44037;55.638;37.356;2023-03-26T03:14:22;97643.13;;;7.17;100.00
58239;BME280;44037;55.638;37.356;2023-03-26T03:16:49;97650.84;;;7.17;100.00
58239;BME280;44037;55.638;37.356;2023-03-26T03:19:17;97642.22;;;7.18;100.00
58239;BME280;44037;55.638;37.356;2023-03-26T03:21:44;97643.97;;;7.16;100.00
58239;BME280;44037;55.638;37.356;2023-03-26T03:24:11;97637.97;;;7.17;100.00
58239;BME280;44037;55.638;37.356;2023-03-26T03:26:42;97630.25;;;7.17;100.00
58239;BME280;44037;55.638;37.356;2023-03-26T03:29:10;97626.75;;;7.18;100.00
58239;BME280;44037;55.638;37.356;2023-03-26T03:31:37;97623.31;;;7.19;100.00
58239;BME280;44037;55.638;37.356;2023-03-26T03:34:05;97613.91;;;7.20;100.00
58239;BME280;44037;55.638;37.356;2023-03-26T03:36:34;97616.44;;;7.21;100.00
58239;BME280;44037;55.638;37.356;2023-03-26T03:39:02;97610.44;;;7.22;100.00
58239;BME280;44037;55.638;37.356;2023-03-26T03:41:30;97604.38;;;7.25;100.00
58239;BME280;44037;55.638;37.356;2023-03-26T03:43:57;97611.25;;;7.28;100.00
58239;BME280;44037;55.638;37.356;2023-03-26T03:46:26;97602.66;;;7.29;100.00
58239;BME280;44037;55.638;37.356;2023-03-26T03:48:53;97607.78;;;7.30;100.00
58239;BME280;44037;55.638;37.356;2023-03-26T03:51:20;97611.16;;;7.34;100.00
58239;BME280;44037;55.638;37.356;2023-03-26T03:53:49;97615.47;;;7.36;100.00
58239;BME280;44037;55.638;37.356;2023-03-26T03:56:17;97606.00;;;7.37;100.00
58239;BME280;44037;55.638;37.356;2023-03-26T03:58:48;97607.66;;;7.43;100.00
58239;BME280;44037;55.638;37.356;2023-03-26T04:01:16;97600.72;;;7.48;100.00
58239;BME280;44037;55.638;37.356;2023-03-26T04:03:43;97596.38;;;7.55;100.00
58239;BME280;44037;55.638;37.356;2023-03-26T04:06:11;97588.63;;;7.55;100.00
58239;BME280;44037;55.638;37.356;2023-03-26T04:08:38;97591.19;;;7.56;100.00
58239;BME280;44037;55.638;37.356;2023-03-26T04:11:06;97592.03;;;7.57;100.00
58239;BME280;44037;55.638;37.356;2023-03-26T04:13:34;97581.69;;;7.61;100.00
58239;BME280;44037;55.638;37.356;2023-03-26T04:16:01;97579.94;;;7.62;100.00
58239;BME280;44037;55.638;37.356;2023-03-26T04:18:28;97577.34;;;7.65;100.00
58239;BME280;44037;55.638;37.356;2023-03-26T04:20:57;97572.16;;;7.66;100.00
58239;BME280;44037;55.638;37.356;2023-03-26T04:23:28;97578.16;;;7.68;100.00
58239;BME280;44037;55.638;37.356;2023-03-26T04:25:56;97573.84;;;7.69;100.00
58239;BME280;44037;55.638;37.356;2023-03-26T04:28:32;97569.50;;;7.74;100.00
58239;BME280;44037;55.638;37.356;2023-03-26T04:31:01;97565.06;;;7.82;100.00
58239;BME280;44037;55.638;37.356;2023-03-26T04:33:30;97555.53;;;7.91;100.00
58239;BME280;44037;55.638;37.356;2023-03-26T04:35:59;97555.47;;;7.95;100.00
58239;BME280;44037;55.638;37.356;2023-03-26T04:38:28;97555.44;;;7.97;100.00
58239;BME280;44037;55.638;37.356;2023-03-26T04:40:58;97550.22;;;8.02;100.00
58239;BME280;44037;55.638;37.356;2023-03-26T04:43:25;97551.84;;;8.09;100.00
58239;BME280;44037;55.638;37.356;2023-03-26T04:45:54;97548.31;;;8.14;100.00
58239;BME280;44037;55.638;37.356;2023-03-26T04:48:21;97541.34;;;8.20;100.00
58239;BME280;44037;55.638;37.356;2023-03-26T04:50:49;97541.28;;;8.26;100.00
58239;BME280;44037;55.638;37.356;2023-03-26T04:53:18;97542.88;;;8.33;100.00
58239;BME280;44037;55.638;37.356;2023-03-26T04:55:50;97539.38;;;8.37;100.00
58239;BME280;44037;55.638;37.356;2023-03-26T04:58:19;97533.28;;;8.43;100.00
58239;BME280;44037;55.638;37.356;2023-03-26T05:00:46;97533.22;;;8.49;100.00
58239;BME280;44037;55.638;37.356;2023-03-26T05:03:15;97533.97;;;8.56;100.00
58239;BME280;44037;55.638;37.356;2023-03-26T05:05:45;97532.16;;;8.61;100.00
58239;BME280;44037;55.638;37.356;2023-03-26T05:08:14;97530.31;;;8.69;100.00
58239;BME280;44037;55.638;37.356;2023-03-26T05:10:41;97526.81;;;8.72;100.00
58239;BME280;44037;55.638;37.356;2023-03-26T05:13:08;97534.53;;;8.75;100.00
58239;BME280;44037;55.638;37.356;2023-03-26T05:15:35;97540.44;;;8.80;100.00
58239;BME280;44037;55.638;37.356;2023-03-26T05:18:02;97531.78;;;8.83;100.00
58239;BME280;44037;55.638;37.356;2023-03-26T05:20:31;97531.78;;;8.83;100.00
58239;BME280;44037;55.638;37.356;2023-03-26T05:22:58;97535.19;;;8.85;100.00
58239;BME280;44037;55.638;37.356;2023-03-26T05:25:25;97536.81;;;8.92;100.00
58239;BME280;44037;55.638;37.356;2023-03-26T05:27:52;97534.13;;;8.95;100.00
58239;BME280;44037;55.638;37.356;2023-03-26T05:30:20;97534.09;;;8.98;100.00
58239;BME280;44037;55.638;37.356;2023-03-26T05:32:48;97534.00;;;9.03;100.00
58239;BME280;44037;55.638;37.356;2023-03-26T05:35:16;97532.16;;;9.10;100.00
58239;BME280;44037;55.638;37.356;2023-03-26T05:37:46;97532.06;;;9.14;100.00
58239;BME280;44037;55.638;37.356;2023-03-26T05:40:14;97526.94;;;9.13;100.00
58239;BME280;44037;55.638;37.356;2023-03-26T05:42:43;97528.75;;;9.09;100.00
58239;BME280;44037;55.638;37.356;2023-03-26T05:45:13;97517.63;;;9.05;100.00
58239;BME280;44037;55.638;37.356;2023-03-26T05:47:40;97522.84;;;9.02;100.00
58239;BME280;44037;55.638;37.356;2023-03-26T05:50:09;97521.97;;;9.03;100.00
58239;BME280;44037;55.638;37.356;2023-03-26T05:52:37;97509.00;;;9.06;100.00
58239;BME280;44037;55.638;37.356;2023-03-26T05:55:06;97501.16;;;9.10;100.00
58239;BME280;44037;55.638;37.356;2023-03-26T05:57:33;97500.31;;;9.09;100.00
58239;BME280;44037;55.638;37.356;2023-03-26T06:00:01;97496.97;;;9.05;100.00
58239;BME280;44037;55.638;37.356;2023-03-26T06:02:30;97489.31;;;9.01;100.00
58239;BME280;44037;55.638;37.356;2023-03-26T06:04:58;97494.50;;;8.98;100.00
58239;BME280;44037;55.638;37.356;2023-03-26T06:07:26;97484.19;;;8.98;100.00
58239;BME280;44037;55.638;37.356;2023-03-26T06:09:53;97488.44;;;9.00;100.00
58239;BME280;44037;55.638;37.356;2023-03-26T06:12:22;97478.94;;;9.02;100.00
58239;BME280;44037;55.638;37.356;2023-03-26T06:14:49;97482.34;;;9.03;100.00
58239;BME280;44037;55.638;37.356;2023-03-26T06:17:16;97478.88;;;9.05;100.00
58239;BME280;44037;55.638;37.356;2023-03-26T06:19:43;97477.91;;;9.10;100.00
58239;BME280;44037;55.638;37.356;2023-03-26T06:22:12;97479.63;;;9.11;100.00
58239;BME280;44037;55.638;37.356;2023-03-26T06:24:39;97482.28;;;9.06;100.00
58239;BME280;44037;55.638;37.356;2023-03-26T06:27:06;97474.75;;;8.95;100.00
58239;BME280;44037;55.638;37.356;2023-03-26T06:29:35;97470.53;;;8.89;100.00
58239;BME280;44037;55.638;37.356;2023-03-26T06:32:02;97464.59;;;8.86;100.00
58239;BME280;44037;55.638;37.356;2023-03-26T06:34:29;97456.06;;;8.82;100.00
58239;BME280;44037;55.638;37.356;2023-03-26T06:36:56;97455.09;;;8.88;100.00
58239;BME280;44037;55.638;37.356;2023-03-26T06:39:23;97450.66;;;8.95;100.00
58239;BME280;44037;55.638;37.356;2023-03-26T06:41:51;97447.94;;;9.02;100.00
58239;BME280;44037;55.638;37.356;2023-03-26T06:44:18;97458.31;;;9.01;100.00
58239;BME280;44037;55.638;37.356;2023-03-26T06:46:46;97454.13;;;8.94;100.00
58239;BME280;44037;55.638;37.356;2023-03-26T06:49:13;97449.16;;;8.83;100.00
58239;BME280;44037;55.638;37.356;2023-03-26T06:51:40;97444.19;;;8.72;100.00
58239;BME280;44037;55.638;37.356;2023-03-26T06:54:08;97446.03;;;8.65;100.00
58239;BME280;44037;55.638;37.356;2023-03-26T06:56:35;97438.38;;;8.60;100.00
58239;BME280;44037;55.638;37.356;2023-03-26T06:59:02;97431.47;;;8.61;100.00
58239;BME280;44037;55.638;37.356;2023-03-26T07:01:29;97427.06;;;8.68;100.00
58239;BME280;44037;55.638;37.356;2023-03-26T07:03:58;97423.53;;;8.72;100.00
58239;BME280;44037;55.638;37.356;2023-03-26T07:06:25;97417.59;;;8.67;100.00
58239;BME280;44037;55.638;37.356;2023-03-26T07:08:52;97410.13;;;8.53;100.00
58239;BME280;44037;55.638;37.356;2023-03-26T07:11:21;97408.47;;;8.49;100.00
58239;BME280;44037;55.638;37.356;2023-03-26T07:13:50;97407.63;;;8.48;100.00
58239;BME280;44037;55.638;37.356;2023-03-26T07:16:17;97401.59;;;8.48;100.00
58239;BME280;44037;55.638;37.356;2023-03-26T07:18:44;97395.56;;;8.49;100.00
58239;BME280;44037;55.638;37.356;2023-03-26T07:21:13;97393.88;;;8.46;100.00
58239;BME280;44037;55.638;37.356;2023-03-26T07:23:41;97390.50;;;8.41;100.00
58239;BME280;44037;55.638;37.356;2023-03-26T07:26:18;97394.94;;;8.36;100.00
58239;BME280;44037;55.638;37.356;2023-03-26T07:28:54;97400.09;;;8.34;100.00
58239;BME280;44037;55.638;37.356;2023-03-26T07:31:27;97395.75;;;8.36;100.00
58239;BME280;44037;55.638;37.356;2023-03-26T07:34:00;97399.03;;;8.44;100.00
58239;BME280;44037;55.638;37.356;2023-03-26T07:36:36;97398.16;;;8.50;100.00
58239;BME280;44037;55.638;37.356;2023-03-26T07:39:13;97393.00;;;8.45;100.00
58239;BME280;44037;55.638;37.356;2023-03-26T07:41:49;97387.88;;;8.44;100.00
58239;BME280;44037;55.638;37.356;2023-03-26T07:44:43;97380.97;;;8.44;100.00
58239;BME280;44037;55.638;37.356;2023-03-26T07:47:20;97380.97;;;8.44;100.00
58239;BME280;44037;55.638;37.356;2023-03-26T07:49:52;97384.44;;;8.45;100.00
58239;BME280;44037;55.638;37.356;2023-03-26T07:52:22;97386.13;;;8.46;100.00
58239;BME280;44037;55.638;37.356;2023-03-26T07:54:49;97389.53;;;8.50;100.00
58239;BME280;44037;55.638;37.356;2023-03-26T07:57:21;97385.19;;;8.52;100.00
58239;BME280;44037;55.638;37.356;2023-03-26T07:59:56;97380.00;;;8.53;100.00
58239;BME280;44037;55.638;37.356;2023-03-26T08:02:38;97385.16;;;8.55;100.00
58239;BME280;44037;55.638;37.356;2023-03-26T08:05:18;97374.91;;;8.50;100.00
58239;BME280;44037;55.638;37.356;2023-03-26T08:07:58;97371.41;;;8.53;100.00
58239;BME280;44037;55.638;37.356;2023-03-26T08:10:34;97354.28;;;8.50;100.00
58239;BME280;44037;55.638;37.356;2023-03-26T08:13:13;97350.59;;;8.62;100.00
58239;BME280;44037;55.638;37.356;2023-03-26T08:15:46;97359.25;;;8.59;100.00
58239;BME280;44037;55.638;37.356;2023-03-26T08:18:30;97357.75;;;8.48;100.00
58239;BME280;44037;55.638;37.356;2023-03-26T08:21:05;97359.53;;;8.42;100.00
58239;BME280;44037;55.638;37.356;2023-03-26T08:23:51;97359.50;;;8.44;100.00
58239;BME280;44037;55.638;37.356;2023-03-26T08:26:28;97352.59;;;8.46;100.00
58239;BME280;44037;55.638;37.356;2023-03-26T08:29:02;97350.00;;;8.48;100.00
58239;BME280;44037;55.638;37.356;2023-03-26T08:31:34;97350.00;;;8.49;100.00
58239;BME280;44037;55.638;37.356;2023-03-26T08:34:04;97343.94;;;8.50;100.00
58239;BME280;44037;55.638;37.356;2023-03-26T08:36:31;97342.19;;;8.51;100.00
58239;BME280;44037;55.638;37.356;2023-03-26T08:39:00;97331.06;;;8.47;100.00
58239;BME280;44037;55.638;37.356;2023-03-26T08:44:59;97326.03;;;8.39;100.00
58239;BME280;44037;55.638;37.356;2023-03-26T08:47:58;97322.78;;;8.31;100.00
58239;BME280;44037;55.638;37.356;2023-03-26T08:54:06;97315.25;;;8.17;100.00
58239;BME280;44037;55.638;37.356;2023-03-26T08:56:45;97306.75;;;8.13;100.00
58239;BME280;44037;55.638;37.356;2023-03-26T09:14:56;97313.69;;;8.10;100.00
58239;BME280;44037;55.638;37.356;2023-03-26T09:20:53;97304.16;;;8.13;100.00
58239;BME280;44037;55.638;37.356;2023-03-26T09:23:48;97302.28;;;8.22;100.00
58239;BME280;44037;55.638;37.356;2023-03-26T09:26:28;97293.56;;;8.29;100.00
58239;BME280;44037;55.638;37.356;2023-03-26T09:29:32;97286.59;;;8.33;100.00
58239;BME280;44037;55.638;37.356;2023-03-26T09:32:37;97294.38;;;8.31;100.00
58239;BME280;44037;55.638;37.356;2023-03-26T09:35:15;97291.88;;;8.28;100.00
58239;BME280;44037;55.638;37.356;2023-03-26T09:37:59;97285.91;;;8.24;100.00
58239;BME280;44037;55.638;37.356;2023-03-26T09:40:34;97278.25;;;8.20;100.00
58239;BME280;44037;55.638;37.356;2023-03-26T09:43:19;97274.78;;;8.21;100.00
58239;BME280;44037;55.638;37.356;2023-03-26T09:46:04;97280.75;;;8.24;100.00
58239;BME280;44037;55.638;37.356;2023-03-26T09:49:09;97276.56;;;8.17;100.00
58239;BME280;44037;55.638;37.356;2023-03-26T09:52:03;97278.41;;;8.12;100.00
58239;BME280;44037;55.638;37.356;2023-03-26T09:57:48;97277.50;;;8.14;100.00
58239;BME280;44037;55.638;37.356;2023-03-26T10:00:28;97273.25;;;8.12;100.00
58239;BME280;44037;55.638;37.356;2023-03-26T10:06:20;97271.47;;;8.15;100.00
58239;BME280;44037;55.638;37.356;2023-03-26T10:09:02;97261.88;;;8.21;100.00
58239;BME280;44037;55.638;37.356;2023-03-26T10:11:53;97267.81;;;8.26;100.00
58239;BME280;44037;55.638;37.356;2023-03-26T10:14:27;97266.13;;;8.25;100.00
58239;BME280;44037;55.638;37.356;2023-03-26T10:17:08;97260.13;;;8.24;100.00
58239;BME280;44037;55.638;37.356;2023-03-26T10:19:50;97254.03;;;8.27;100.00
58239;BME280;44037;55.638;37.356;2023-03-26T10:22:34;97252.38;;;8.23;100.00
58239;BME280;44037;55.638;37.356;2023-03-26T10:25:25;97254.16;;;8.21;100.00
58239;BME280;44037;55.638;37.356;2023-03-26T10:28:08;97252.44;;;8.20;100.00
58239;BME280;44037;55.638;37.356;2023-03-26T10:30:53;97252.53;;;8.17;100.00
58239;BME280;44037;55.638;37.356;2023-03-26T10:33:30;97260.19;;;8.20;100.00
58239;BME280;44037;55.638;37.356;2023-03-26T10:36:26;97247.38;;;8.17;100.00
58239;BME280;44037;55.638;37.356;2023-03-26T10:39:22;97247.38;;;8.17;100.00
58239;BME280;44037;55.638;37.356;2023-03-26T10:42:03;97249.94;;;8.17;100.00
58239;BME280;44037;55.638;37.356;2023-03-26T10:44:46;97249.91;;;8.18;100.00
58239;BME280;44037;55.638;37.356;2023-03-26T10:47:46;97246.41;;;8.21;100.00
58239;BME280;44037;55.638;37.356;2023-03-26T10:50:41;97244.56;;;8.27;100.00
58239;BME280;44037;55.638;37.356;2023-03-26T10:53:24;97239.31;;;8.32;100.00
58239;BME280;44037;55.638;37.356;2023-03-26T10:56:00;97247.84;;;8.36;100.00
58239;BME280;44037;55.638;37.356;2023-03-26T10:58:35;97240.91;;;8.39;100.00
58239;BME280;44037;55.638;37.356;2023-03-26T11:01:04;97248.63;;;8.39;100.00
58239;BME280;44037;55.638;37.356;2023-03-26T11:03:47;97241.78;;;8.38;100.00
58239;BME280;44037;55.638;37.356;2023-03-26T11:06:39;97239.06;;;8.44;100.00
58239;BME280;44037;55.638;37.356;2023-03-26T11:09:27;97239.97;;;8.43;100.00
58239;BME280;44037;55.638;37.356;2023-03-26T11:12:06;97235.69;;;8.41;100.00
58239;BME280;44037;55.638;37.356;2023-03-26T11:14:45;97239.16;;;8.40;100.00
58239;BME280;44037;55.638;37.356;2023-03-26T11:17:30;97234.81;;;8.42;100.00
58239;BME280;44037;55.638;37.356;2023-03-26T11:20:03;97236.47;;;8.44;100.00
58239;BME280;44037;55.638;37.356;2023-03-26T11:22:40;97239.88;;;8.46;100.00
58239;BME280;44037;55.638;37.356;2023-03-26T11:25:24;97234.69;;;8.50;100.00
58239;BME280;44037;55.638;37.356;2023-03-26T11:28:12;97235.56;;;8.49;100.00
58239;BME280;44037;55.638;37.356;2023-03-26T11:30:47;97232.94;;;8.52;100.00
58239;BME280;44037;55.638;37.356;2023-03-26T11:33:34;97230.31;;;8.53;100.00
58239;BME280;44037;55.638;37.356;2023-03-26T11:36:06;97233.75;;;8.54;100.00
58239;BME280;44037;55.638;37.356;2023-03-26T11:38:37;97238.94;;;8.52;100.00
58239;BME280;44037;55.638;37.356;2023-03-26T11:41:14;97239.78;;;8.53;100.00
58239;BME280;44037;55.638;37.356;2023-03-26T11:43:51;97237.22;;;8.51;100.00
58239;BME280;44037;55.638;37.356;2023-03-26T11:46:22;97231.09;;;8.57;100.00
58239;BME280;44037;55.638;37.356;2023-03-26T11:48:56;97234.47;;;8.59;100.00
58239;BME280;44037;55.638;37.356;2023-03-26T11:51:30;97234.38;;;8.64;100.00
58239;BME280;44037;55.638;37.356;2023-03-26T11:54:01;97237.78;;;8.67;100.00
58239;BME280;44037;55.638;37.356;2023-03-26T11:56:30;97231.75;;;8.67;100.00
58239;BME280;44037;55.638;37.356;2023-03-26T11:59:05;97228.28;;;8.69;100.00
58239;BME280;44037;55.638;37.356;2023-03-26T12:01:46;97233.34;;;8.72;100.00
58239;BME280;44037;55.638;37.356;2023-03-26T12:04:16;97222.19;;;8.70;100.00
58239;BME280;44037;55.638;37.356;2023-03-26T12:06:51;97219.63;;;8.70;100.00
58239;BME280;44037;55.638;37.356;2023-03-26T12:09:23;97214.44;;;8.70;100.00
58239;BME280;44037;55.638;37.356;2023-03-26T12:11:58;97213.56;;;8.71;100.00
58239;BME280;44037;55.638;37.356;2023-03-26T12:14:40;97210.09;;;8.72;100.00
58239;BME280;44037;55.638;37.356;2023-03-26T12:17:13;97213.56;;;8.71;100.00
58239;BME280;44037;55.638;37.356;2023-03-26T12:19:42;97206.72;;;8.70;100.00
58239;BME280;44037;55.638;37.356;2023-03-26T12:22:26;97206.78;;;8.67;100.00
58239;BME280;44037;55.638;37.356;2023-03-26T12:25:12;97205.94;;;8.67;100.00
58239;BME280;44037;55.638;37.356;2023-03-26T12:27:44;97199.06;;;8.66;100.00
58239;BME280;44037;55.638;37.356;2023-03-26T12:30:20;97199.94;;;8.66;100.00
58239;BME280;44037;55.638;37.356;2023-03-26T12:33:00;97183.56;;;8.66;100.00
58239;BME280;44037;55.638;37.356;2023-03-26T12:35:38;97187.69;;;8.74;100.00
58239;BME280;44037;55.638;37.356;2023-03-26T12:38:22;97191.09;;;8.76;100.00
58239;BME280;44037;55.638;37.356;2023-03-26T12:41:05;97187.69;;;8.74;100.00
58239;BME280;44037;55.638;37.356;2023-03-26T12:43:38;97191.88;;;8.80;100.00
58239;BME280;44037;55.638;37.356;2023-03-26T12:46:26;97188.44;;;8.80;100.00
58239;BME280;44037;55.638;37.356;2023-03-26T12:48:58;97187.47;;;8.84;100.00
58239;BME280;44037;55.638;37.356;2023-03-26T12:51:35;97182.25;;;8.87;100.00
58239;BME280;44037;55.638;37.356;2023-03-26T12:57:18;97193.50;;;8.84;100.00
58239;BME280;44037;55.638;37.356;2023-03-26T13:00:22;97190.16;;;8.81;100.00
58239;BME280;44037;55.638;37.356;2023-03-26T13:03:11;97195.28;;;8.82;100.00
58239;BME280;44037;55.638;37.356;2023-03-26T13:06:09;97191.91;;;8.79;100.00
58239;BME280;44037;55.638;37.356;2023-03-26T13:11:52;97191.94;;;8.77;100.00
58239;BME280;44037;55.638;37.356;2023-03-26T13:14:33;97192.75;;;8.79;100.00
58239;BME280;44037;55.638;37.356;2023-03-26T13:17:14;97191.88;;;8.80;100.00
58239;BME280;44037;55.638;37.356;2023-03-26T13:20:04;97189.34;;;8.79;100.00
58239;BME280;44037;55.638;37.356;2023-03-26T13:22:50;97187.63;;;8.78;100.00
58239;BME280;44037;55.638;37.356;2023-03-26T13:25:32;97189.34;;;8.77;100.00
58239;BME280;44037;55.638;37.356;2023-03-26T13:28:14;97186.81;;;8.75;100.00
58239;BME280;44037;55.638;37.356;2023-03-26T13:30:50;97191.03;;;8.78;100.00
58239;BME280;44037;55.638;37.356;2023-03-26T13:33:24;97182.47;;;8.78;100.00
58239;BME280;44037;55.638;37.356;2023-03-26T13:35:58;97180.75;;;8.76;100.00
58239;BME280;44037;55.638;37.356;2023-03-26T13:38:38;97188.50;;;8.76;100.00
58239;BME280;44037;55.638;37.356;2023-03-26T13:41:16;97180.75;;;8.76;100.00
58239;BME280;44037;55.638;37.356;2023-03-26T13:43:56;97179.06;;;8.75;100.00
58239;BME280;44037;55.638;37.356;2023-03-26T13:46:31;97180.81;;;8.75;100.00
58239;BME280;44037;55.638;37.356;2023-03-26T13:49:08;97169.69;;;8.71;100.00
58239;BME280;44037;55.638;37.356;2023-03-26T13:51:43;97162.81;;;8.72;100.00
58239;BME280;44037;55.638;37.356;2023-03-26T13:54:18;97172.25;;;8.71;100.00
58239;BME280;44037;55.638;37.356;2023-03-26T13:56:51;97173.97;;;8.72;100.00
58239;BME280;44037;55.638;37.356;2023-03-26T13:59:40;97173.16;;;8.70;100.00
58239;BME280;44037;55.638;37.356;2023-03-26T14:02:17;97171.53;;;8.66;100.00